sensor_id;sensor_type;location;lat;lon;timestamp;pressure;altitude;pressure_sealevel;temperature;humidity
35435;BME280;21556;55.782;37.528;2024-03-25T00:00:28;97967.84;;;6.90;100.00
35435;BME280;21556;55.782;37.528;2024-03-25T00:02:54;97978.97;;;6.49;100.00
35435;BME280;21556;55.782;37.528;2024-03-25T00:05:22;97976.31;;;6.32;100.00
35435;BME280;21556;55.782;37.528;2024-03-25T00:07:56;97978.78;;;6.14;100.00
35435;BME280;21556;55.782;37.528;2024-03-25T00:10:26;97992.75;;;6.25;100.00
35435;BME280;21556;55.782;37.528;2024-03-25T00:12:54;98009.50;;;6.70;100.00
35435;BME280;21556;55.782;37.528;2024-03-25T00:15:22;98015.56;;;6.69;100.00
35435;BME280;21556;55.782;37.528;2024-03-25T00:17:49;98013.00;;;6.81;100.00
35435;BME280;21556;55.782;37.528;2024-03-25T00:20:17;98021.63;;;6.66;100.00
35435;BME280;21556;55.782;37.528;2024-03-25T00:22:43;98025.94;;;6.60;100.00
35435;BME280;21556;55.782;37.528;2024-03-25T00:25:22;98032.00;;;6.60;100.00
35435;BME280;21556;55.782;37.528;2024-03-25T00:27:51;98017.69;;;5.95;100.00
35435;BME280;21556;55.782;37.528;2024-03-25T00:30:23;98018.91;;;6.43;100.00
35435;BME280;21556;55.782;37.528;2024-03-25T00:32:49;98014.56;;;6.45;100.00
35435;BME280;21556;55.782;37.528;2024-03-25T00:35:19;98025.88;;;6.47;100.00
35435;BME280;21556;55.782;37.528;2024-03-25T00:37:49;98035.09;;;5.99;100.00
35435;BME280;21556;55.782;37.528;2024-03-25T00:40:15;98053.53;;;6.29;100.00
35435;BME280;21556;55.782;37.528;2024-03-25T00:42:41;98024.81;;;6.18;100.00
35435;BME280;21556;55.782;37.528;2024-03-25T00:45:08;98038.72;;;6.21;100.00
35435;BME280;21556;55.782;37.528;2024-03-25T00:47:36;98051.41;;;5.85;100.00
35435;BME280;21556;55.782;37.528;2024-03-25T00:50:05;98035.06;;;5.96;100.00
35435;BME280;21556;55.782;37.528;2024-03-25T00:52:31;98038.81;;;6.38;100.00
35435;BME280;21556;55.782;37.528;2024-03-25T00:54:57;98054.56;;;6.52;100.00
35435;BME280;21556;55.782;37.528;2024-03-25T00:57:23;98056.84;;;6.09;100.00
35435;BME280;21556;55.782;37.528;2024-03-25T00:59:49;98061.44;;;6.45;100.00
35435;BME280;21556;55.782;37.528;2024-03-25T01:02:15;98059.63;;;6.35;100.00
35435;BME280;21556;55.782;37.528;2024-03-25T01:04:42;98062.97;;;6.16;100.00
35435;BME280;21556;55.782;37.528;2024-03-25T01:33:26;98111.41;;;5.97;100.00
35435;BME280;21556;55.782;37.528;2024-03-25T01:35:52;98104.66;;;6.14;100.00
35435;BME280;21556;55.782;37.528;2024-03-25T01:38:20;98110.19;;;5.66;100.00
35435;BME280;21556;55.782;37.528;2024-03-25T01:40:46;98107.59;;;5.66;100.00
35435;BME280;21556;55.782;37.528;2024-03-25T01:43:12;98120.06;;;5.94;100.00
35435;BME280;21556;55.782;37.528;2024-03-25T01:45:37;98114.09;;;6.03;100.00
35435;BME280;21556;55.782;37.528;2024-03-25T01:48:07;98129.72;;;6.05;100.00
35435;BME280;21556;55.782;37.528;2024-03-25T01:50:35;98111.56;;;6.11;100.00
35435;BME280;21556;55.782;37.528;2024-03-25T01:53:04;98116.69;;;6.06;100.00
35435;BME280;21556;55.782;37.528;2024-03-25T01:55:30;98115.75;;;5.96;100.00
35435;BME280;21556;55.782;37.528;2024-03-25T01:57:58;98137.78;;;5.50;100.00
35435;BME280;21556;55.782;37.528;2024-03-25T02:00:24;98122.66;;;5.94;100.00
35435;BME280;21556;55.782;37.528;2024-03-25T02:02:52;98131.84;;;5.62;100.00
35435;BME280;21556;55.782;37.528;2024-03-25T02:05:18;98136.66;;;5.29;100.00
35435;BME280;21556;55.782;37.528;2024-03-25T02:07:44;98136.41;;;5.81;100.00
35435;BME280;21556;55.782;37.528;2024-03-25T02:10:11;98150.28;;;5.83;100.00
35435;BME280;21556;55.782;37.528;2024-03-25T02:12:40;98148.03;;;6.17;100.00
35435;BME280;21556;55.782;37.528;2024-03-25T02:15:07;98136.47;;;5.89;100.00
35435;BME280;21556;55.782;37.528;2024-03-25T02:17:34;98157.56;;;6.10;100.00
35435;BME280;21556;55.782;37.528;2024-03-25T02:20:00;98159.31;;;5.38;100.00
35435;BME280;21556;55.782;37.528;2024-03-25T02:22:26;98164.78;;;5.60;100.00
35435;BME280;21556;55.782;37.528;2024-03-25T02:24:52;98156.41;;;5.87;100.00
35435;BME280;21556;55.782;37.528;2024-03-25T02:27:18;98161.53;;;5.79;100.00
35435;BME280;21556;55.782;37.528;2024-03-25T02:29:45;98167.66;;;5.86;100.00
35435;BME280;21556;55.782;37.528;2024-03-25T02:32:11;98163.13;;;5.69;100.00
35435;BME280;21556;55.782;37.528;2024-03-25T02:34:37;98174.66;;;5.90;100.00
35435;BME280;21556;55.782;37.528;2024-03-25T02:37:03;98167.88;;;6.02;100.00
35435;BME280;21556;55.782;37.528;2024-03-25T02:39:29;98179.09;;;5.98;100.00
35435;BME280;21556;55.782;37.528;2024-03-25T02:41:57;98184.16;;;5.85;100.00
35435;BME280;21556;55.782;37.528;2024-03-25T02:44:23;98185.81;;;5.78;100.00
35435;BME280;21556;55.782;37.528;2024-03-25T02:46:49;98186.59;;;5.72;100.00
35435;BME280;21556;55.782;37.528;2024-03-25T02:49:15;98190.97;;;5.75;100.00
35435;BME280;21556;55.782;37.528;2024-03-25T02:51:41;98198.78;;;5.76;100.00
35435;BME280;21556;55.782;37.528;2024-03-25T02:54:09;98203.03;;;5.68;100.00
35435;BME280;21556;55.782;37.528;2024-03-25T02:56:35;98217.81;;;5.72;100.00
35435;BME280;21556;55.782;37.528;2024-03-25T02:59:01;98220.63;;;5.22;100.00
35435;BME280;21556;55.782;37.528;2024-03-25T03:01:30;98224.84;;;5.78;100.00
35435;BME280;21556;55.782;37.528;2024-03-25T03:03:59;98236.47;;;5.38;100.00
35435;BME280;21556;55.782;37.528;2024-03-25T03:06:25;98235.47;;;5.29;100.00
35435;BME280;21556;55.782;37.528;2024-03-25T03:08:51;98233.09;;;5.45;100.00
35435;BME280;21556;55.782;37.528;2024-03-25T03:11:17;98236.53;;;5.42;100.00
35435;BME280;21556;55.782;37.528;2024-03-25T03:13:45;98240.16;;;4.94;100.00
35435;BME280;21556;55.782;37.528;2024-03-25T03:16:12;98240.69;;;4.73;100.00
35435;BME280;21556;55.782;37.528;2024-03-25T03:18:40;98250.63;;;5.00;100.00
35435;BME280;21556;55.782;37.528;2024-03-25T03:21:06;98246.78;;;5.31;100.00
35435;BME280;21556;55.782;37.528;2024-03-25T03:23:32;98240.72;;;5.32;100.00
35435;BME280;21556;55.782;37.528;2024-03-25T03:25:58;98253.97;;;5.51;100.00
35435;BME280;21556;55.782;37.528;2024-03-25T03:28:26;98259.88;;;5.38;100.00
35435;BME280;21556;55.782;37.528;2024-03-25T03:30:53;98268.09;;;5.70;100.00
35435;BME280;21556;55.782;37.528;2024-03-25T03:33:19;98260.16;;;4.98;100.00
35435;BME280;21556;55.782;37.528;2024-03-25T03:35:48;98258.06;;;5.34;100.00
35435;BME280;21556;55.782;37.528;2024-03-25T03:38:16;98272.94;;;5.42;100.00
35435;BME280;21556;55.782;37.528;2024-03-25T03:40:55;98269.84;;;5.09;100.00
35435;BME280;21556;55.782;37.528;2024-03-25T03:43:21;98279.31;;;5.64;100.00
35435;BME280;21556;55.782;37.528;2024-03-25T03:45:47;98283.53;;;5.56;100.00
35435;BME280;21556;55.782;37.528;2024-03-25T03:48:13;98288.69;;;5.53;100.00
35435;BME280;21556;55.782;37.528;2024-03-25T03:50:39;98298.84;;;5.35;100.00
35435;BME280;21556;55.782;37.528;2024-03-25T03:53:05;98288.66;;;5.50;100.00
35435;BME280;21556;55.782;37.528;2024-03-25T03:55:31;98296.44;;;5.48;100.00
35435;BME280;21556;55.782;37.528;2024-03-25T03:57:57;98294.63;;;5.44;100.00
35435;BME280;21556;55.782;37.528;2024-03-25T04:00:23;98305.44;;;5.73;100.00
35435;BME280;21556;55.782;37.528;2024-03-25T04:02:58;98301.59;;;5.47;100.00
35435;BME280;21556;55.782;37.528;2024-03-25T04:05:24;98315.41;;;4.87;100.00
35435;BME280;21556;55.782;37.528;2024-03-25T04:07:53;98315.56;;;5.52;100.00
35435;BME280;21556;55.782;37.528;2024-03-25T04:10:19;98320.41;;;5.88;100.00
35435;BME280;21556;55.782;37.528;2024-03-25T04:12:45;98336.41;;;6.16;100.00
35435;BME280;21556;55.782;37.528;2024-03-25T04:15:12;98329.00;;;5.84;100.00
35435;BME280;21556;55.782;37.528;2024-03-25T04:17:46;98335.38;;;6.03;100.00
35435;BME280;21556;55.782;37.528;2024-03-25T04:20:12;98326.25;;;5.73;100.00
35435;BME280;21556;55.782;37.528;2024-03-25T04:22:42;98331.94;;;5.45;100.00
35435;BME280;21556;55.782;37.528;2024-03-25T04:25:10;98342.81;;;5.21;100.00
35435;BME280;21556;55.782;37.528;2024-03-25T04:27:40;98341.91;;;5.75;100.00
35435;BME280;21556;55.782;37.528;2024-03-25T04:30:06;98345.16;;;5.60;100.00
35435;BME280;21556;55.782;37.528;2024-03-25T04:32:33;98348.75;;;5.67;100.00
35435;BME280;21556;55.782;37.528;2024-03-25T04:34:59;98348.75;;;5.67;100.00
35435;BME280;21556;55.782;37.528;2024-03-25T04:37:26;98355.75;;;5.72;100.00
35435;BME280;21556;55.782;37.528;2024-03-25T04:39:53;98361.75;;;5.67;100.00
35435;BME280;21556;55.782;37.528;2024-03-25T04:42:19;98361.75;;;5.67;100.00
35435;BME280;21556;55.782;37.528;2024-03-25T04:44:46;98368.09;;;5.28;100.00
35435;BME280;21556;55.782;37.528;2024-03-25T04:47:12;98380.44;;;5.43;100.00
35435;BME280;21556;55.782;37.528;2024-03-25T04:49:40;98378.56;;;5.92;100.00
35435;BME280;21556;55.782;37.528;2024-03-25T04:52:05;98388.38;;;6.07;100.00
35435;BME280;21556;55.782;37.528;2024-03-25T04:54:31;98381.06;;;5.84;100.00
35435;BME280;21556;55.782;37.528;2024-03-25T04:57:00;98395.38;;;6.11;100.00
35435;BME280;21556;55.782;37.528;2024-03-25T04:59:28;98399.00;;;5.64;100.00
35435;BME280;21556;55.782;37.528;2024-03-25T05:02:04;98403.97;;;5.49;100.00
35435;BME280;21556;55.782;37.528;2024-03-25T05:04:30;98401.44;;;5.53;100.00
35435;BME280;21556;55.782;37.528;2024-03-25T05:06:59;98408.16;;;5.95;100.00
35435;BME280;21556;55.782;37.528;2024-03-25T05:09:25;98411.81;;;6.07;100.00
35435;BME280;21556;55.782;37.528;2024-03-25T05:11:51;98417.78;;;5.99;100.00
35435;BME280;21556;55.782;37.528;2024-03-25T05:14:17;98422.06;;;5.97;100.00
35435;BME280;21556;55.782;37.528;2024-03-25T05:16:45;98431.22;;;5.72;100.00
35435;BME280;21556;55.782;37.528;2024-03-25T05:19:12;98428.88;;;5.91;100.00
35435;BME280;21556;55.782;37.528;2024-03-25T05:21:43;98429.53;;;5.76;100.00
35435;BME280;21556;55.782;37.528;2024-03-25T05:24:08;98428.59;;;6.30;100.00
35435;BME280;21556;55.782;37.528;2024-03-25T05:26:34;98432.75;;;6.16;100.00
35435;BME280;21556;55.782;37.528;2024-03-25T05:29:00;98441.97;;;6.56;100.00
35435;BME280;21556;55.782;37.528;2024-03-25T05:31:26;98444.88;;;6.14;100.00
35435;BME280;21556;55.782;37.528;2024-03-25T05:33:54;98448.44;;;6.20;100.00
35435;BME280;21556;55.782;37.528;2024-03-25T05:36:22;98456.50;;;6.39;100.00
35435;BME280;21556;55.782;37.528;2024-03-25T05:38:48;98463.94;;;6.13;100.00
35435;BME280;21556;55.782;37.528;2024-03-25T05:41:14;98474.56;;;6.28;100.00
35435;BME280;21556;55.782;37.528;2024-03-25T05:43:43;98468.88;;;6.57;100.00
35435;BME280;21556;55.782;37.528;2024-03-25T05:46:09;98468.41;;;6.87;100.00
35435;BME280;21556;55.782;37.528;2024-03-25T05:48:38;98476.34;;;6.97;100.00
35435;BME280;21556;55.782;37.528;2024-03-25T05:51:04;98471.88;;;6.89;100.00
35435;BME280;21556;55.782;37.528;2024-03-25T05:53:43;98478.06;;;6.95;100.00
35435;BME280;21556;55.782;37.528;2024-03-25T05:56:13;98481.09;;;6.59;100.00
35435;BME280;21556;55.782;37.528;2024-03-25T05:58:40;98482.97;;;6.71;100.00
35435;BME280;21556;55.782;37.528;2024-03-25T06:01:10;98482.78;;;6.56;100.00
35435;BME280;21556;55.782;37.528;2024-03-25T06:03:36;98490.19;;;6.93;100.00
35435;BME280;21556;55.782;37.528;2024-03-25T06:06:02;98492.81;;;6.28;100.00
35435;BME280;21556;55.782;37.528;2024-03-25T06:08:28;98492.63;;;6.77;100.00
35435;BME280;21556;55.782;37.528;2024-03-25T06:11:09;98498.16;;;6.37;100.00
35435;BME280;21556;55.782;37.528;2024-03-25T06:13:36;98505.56;;;6.10;100.00
35435;BME280;21556;55.782;37.528;2024-03-25T06:16:03;98508.38;;;6.89;100.00
35435;BME280;21556;55.782;37.528;2024-03-25T06:18:29;98519.84;;;6.35;100.00
35435;BME280;21556;55.782;37.528;2024-03-25T06:20:54;98511.03;;;6.93;100.00
35435;BME280;21556;55.782;37.528;2024-03-25T06:23:21;98524.19;;;7.01;100.00
35435;BME280;21556;55.782;37.528;2024-03-25T06:25:48;98528.66;;;8.01;100.00
35435;BME280;21556;55.782;37.528;2024-03-25T06:28:14;98529.22;;;8.79;100.00
35435;BME280;21556;55.782;37.528;2024-03-25T06:30:40;98526.13;;;8.12;100.00
35435;BME280;21556;55.782;37.528;2024-03-25T06:33:23;98520.78;;;9.66;100.00
35435;BME280;21556;55.782;37.528;2024-03-25T06:36:08;98533.41;;;8.50;100.00
35435;BME280;21556;55.782;37.528;2024-03-25T06:38:34;98532.84;;;9.09;100.00
35435;BME280;21556;55.782;37.528;2024-03-25T06:40:59;98555.06;;;7.39;100.00
35435;BME280;21556;55.782;37.528;2024-03-25T06:43:25;98546.34;;;8.36;100.00
35435;BME280;21556;55.782;37.528;2024-03-25T06:45:51;98547.66;;;7.82;100.00
35435;BME280;21556;55.782;37.528;2024-03-25T06:48:17;98563.97;;;6.83;100.00
35435;BME280;21556;55.782;37.528;2024-03-25T06:50:51;98561.19;;;7.42;100.00
35435;BME280;21556;55.782;37.528;2024-03-25T06:53:17;98566.44;;;7.45;100.00
35435;BME280;21556;55.782;37.528;2024-03-25T06:55:50;98573.75;;;7.80;100.00
35435;BME280;21556;55.782;37.528;2024-03-25T06:58:16;98574.72;;;7.88;100.00
35435;BME280;21556;55.782;37.528;2024-03-25T07:00:41;98570.22;;;7.75;100.00
35435;BME280;21556;55.782;37.528;2024-03-25T07:03:07;98581.50;;;7.72;100.00
35435;BME280;21556;55.782;37.528;2024-03-25T07:05:34;98583.28;;;7.75;100.00
35435;BME280;21556;55.782;37.528;2024-03-25T07:08:00;98584.00;;;7.60;100.00
35435;BME280;21556;55.782;37.528;2024-03-25T07:10:25;98592.28;;;7.24;100.00
35435;BME280;21556;55.782;37.528;2024-03-25T07:12:51;98598.53;;;7.38;100.00
35435;BME280;21556;55.782;37.528;2024-03-25T07:15:26;98606.09;;;7.18;100.00
35435;BME280;21556;55.782;37.528;2024-03-25T07:17:52;98606.41;;;7.43;100.00
35435;BME280;21556;55.782;37.528;2024-03-25T07:20:21;98598.31;;;8.01;100.00
35435;BME280;21556;55.782;37.528;2024-03-25T07:22:48;98604.66;;;8.30;100.00
35435;BME280;21556;55.782;37.528;2024-03-25T07:25:14;98604.13;;;8.74;100.00
35435;BME280;21556;55.782;37.528;2024-03-25T07:27:40;98606.22;;;9.38;100.00
35435;BME280;21556;55.782;37.528;2024-03-25T07:30:06;98603.44;;;9.03;100.00
35435;BME280;21556;55.782;37.528;2024-03-25T07:32:33;98609.53;;;8.97;100.00
35435;BME280;21556;55.782;37.528;2024-03-25T07:34:59;98612.09;;;8.92;100.00
35435;BME280;21556;55.782;37.528;2024-03-25T07:37:24;98615.91;;;9.67;100.00
35435;BME280;21556;55.782;37.528;2024-03-25T07:39:50;98615.59;;;8.95;100.00
35435;BME280;21556;55.782;37.528;2024-03-25T07:42:17;98622.00;;;9.61;100.00
35435;BME280;21556;55.782;37.528;2024-03-25T07:44:43;98619.41;;;9.69;100.00
35435;BME280;21556;55.782;37.528;2024-03-25T07:47:09;98643.22;;;8.56;100.00
35435;BME280;21556;55.782;37.528;2024-03-25T07:49:35;98633.19;;;9.22;100.00
35435;BME280;21556;55.782;37.528;2024-03-25T07:52:02;98641.03;;;9.20;100.00
35435;BME280;21556;55.782;37.528;2024-03-25T07:54:28;98641.84;;;9.10;100.00
35435;BME280;21556;55.782;37.528;2024-03-25T07:56:54;98637.53;;;9.21;100.00
35435;BME280;21556;55.782;37.528;2024-03-25T07:59:20;98642.09;;;9.63;100.00
35435;BME280;21556;55.782;37.528;2024-03-25T08:01:46;98648.75;;;8.94;100.00
35435;BME280;21556;55.782;37.528;2024-03-25T08:04:12;98654.94;;;9.13;100.00
35435;BME280;21556;55.782;37.528;2024-03-25T08:06:38;98660.81;;;8.74;100.00
35435;BME280;21556;55.782;37.528;2024-03-25T08:09:04;98649.94;;;9.59;100.00
35435;BME280;21556;55.782;37.528;2024-03-25T08:11:32;98653.47;;;9.70;100.00
35435;BME280;21556;55.782;37.528;2024-03-25T08:13:58;98652.66;;;11.21;100.00
35435;BME280;21556;55.782;37.528;2024-03-25T08:16:24;98645.72;;;10.99;100.00
35435;BME280;21556;55.782;37.528;2024-03-25T08:18:50;98657.84;;;9.83;100.00
35435;BME280;21556;55.782;37.528;2024-03-25T08:21:16;98653.38;;;9.46;100.00
35435;BME280;21556;55.782;37.528;2024-03-25T08:23:45;98660.41;;;9.57;100.00
35435;BME280;21556;55.782;37.528;2024-03-25T08:26:11;98659.72;;;10.26;100.00
35435;BME280;21556;55.782;37.528;2024-03-25T08:28:37;98669.28;;;9.99;100.00
35435;BME280;21556;55.782;37.528;2024-03-25T08:31:05;98655.84;;;9.12;100.00
35435;BME280;21556;55.782;37.528;2024-03-25T08:33:30;98675.94;;;9.19;100.00
35435;BME280;21556;55.782;37.528;2024-03-25T08:35:57;98667.34;;;9.51;100.00
35435;BME280;21556;55.782;37.528;2024-03-25T08:38:22;98667.34;;;9.49;100.00
35435;BME280;21556;55.782;37.528;2024-03-25T08:40:48;98667.31;;;9.38;100.00
35435;BME280;21556;55.782;37.528;2024-03-25T08:43:16;98670.16;;;10.12;100.00
35435;BME280;21556;55.782;37.528;2024-03-25T08:45:41;98667.38;;;9.57;100.00
35435;BME280;21556;55.782;37.528;2024-03-25T08:48:07;98668.50;;;10.35;100.00
35435;BME280;21556;55.782;37.528;2024-03-25T08:50:33;98670.22;;;10.41;100.00
35435;BME280;21556;55.782;37.528;2024-03-25T08:52:58;98676.38;;;10.58;100.00
35435;BME280;21556;55.782;37.528;2024-03-25T08:55:24;98674.50;;;9.93;100.00
35435;BME280;21556;55.782;37.528;2024-03-25T08:57:50;98677.94;;;9.83;100.00
35435;BME280;21556;55.782;37.528;2024-03-25T09:00:21;98684.03;;;9.76;100.00
35435;BME280;21556;55.782;37.528;2024-03-25T09:02:51;98688.13;;;9.22;100.00
35435;BME280;21556;55.782;37.528;2024-03-25T09:05:17;98688.25;;;9.38;100.00
35435;BME280;21556;55.782;37.528;2024-03-25T09:07:44;98678.06;;;10.96;100.00
35435;BME280;21556;55.782;37.528;2024-03-25T09:10:10;98679.84;;;10.74;100.00
35435;BME280;21556;55.782;37.528;2024-03-25T09:12:55;98688.56;;;11.19;100.00
35435;BME280;21556;55.782;37.528;2024-03-25T09:15:21;98678.09;;;11.04;100.00
35435;BME280;21556;55.782;37.528;2024-03-25T09:17:52;98687.72;;;10.97;100.00
35435;BME280;21556;55.782;37.528;2024-03-25T09:20:17;98690.81;;;12.16;100.00
35435;BME280;21556;55.782;37.528;2024-03-25T09:22:46;98691.56;;;12.38;100.00
35435;BME280;21556;55.782;37.528;2024-03-25T09:25:14;98701.44;;;11.94;100.00
35435;BME280;21556;55.782;37.528;2024-03-25T09:27:40;98700.81;;;11.14;100.00
35435;BME280;21556;55.782;37.528;2024-03-25T09:30:14;98709.56;;;10.33;100.00
35435;BME280;21556;55.782;37.528;2024-03-25T09:32:43;98718.19;;;10.12;100.00
35435;BME280;21556;55.782;37.528;2024-03-25T09:35:11;98717.41;;;11.31;100.00
35435;BME280;21556;55.782;37.528;2024-03-25T09:37:40;98714.78;;;11.35;100.00
35435;BME280;21556;55.782;37.528;2024-03-25T09:40:06;98723.53;;;11.29;100.00
35435;BME280;21556;55.782;37.528;2024-03-25T09:42:42;98727.78;;;11.77;100.00
35435;BME280;21556;55.782;37.528;2024-03-25T09:45:22;98718.19;;;11.67;100.00
35435;BME280;21556;55.782;37.528;2024-03-25T09:47:52;98716.56;;;11.20;100.00
35435;BME280;21556;55.782;37.528;2024-03-25T09:50:19;98724.47;;;10.91;100.00
35435;BME280;21556;55.782;37.528;2024-03-25T09:52:49;98727.59;;;12.23;100.00
35435;BME280;21556;55.782;37.528;2024-03-25T09:55:17;98728.63;;;11.82;100.00
35435;BME280;21556;55.782;37.528;2024-03-25T09:57:47;98724.19;;;12.09;100.00
35435;BME280;21556;55.782;37.528;2024-03-25T10:00:22;98730.28;;;12.14;100.00
35435;BME280;21556;55.782;37.528;2024-03-25T10:02:53;98726.91;;;11.72;100.00
35435;BME280;21556;55.782;37.528;2024-03-25T10:05:22;98727.03;;;11.37;100.00
35435;BME280;21556;55.782;37.528;2024-03-25T10:07:51;98720.09;;;10.90;100.00
35435;BME280;21556;55.782;37.528;2024-03-25T10:10:20;98731.44;;;11.11;100.00
35435;BME280;21556;55.782;37.528;2024-03-25T10:12:49;98724.41;;;11.39;100.00
35435;BME280;21556;55.782;37.528;2024-03-25T10:15:20;98726.69;;;12.29;100.00
35435;BME280;21556;55.782;37.528;2024-03-25T10:17:49;98734.69;;;12.08;100.00
35435;BME280;21556;55.782;37.528;2024-03-25T10:20:15;98729.59;;;11.66;100.00
35435;BME280;21556;55.782;37.528;2024-03-25T10:22:44;98728.06;;;12.84;100.00
35435;BME280;21556;55.782;37.528;2024-03-25T10:25:26;98733.19;;;13.00;98.40
35435;BME280;21556;55.782;37.528;2024-03-25T10:27:56;98724.50;;;13.79;90.12
35435;BME280;21556;55.782;37.528;2024-03-25T10:30:21;98732.16;;;11.86;100.00
35435;BME280;21556;55.782;37.528;2024-03-25T10:33:03;98733.72;;;12.25;100.00
35435;BME280;21556;55.782;37.528;2024-03-25T10:35:30;98740.19;;;11.03;100.00
35435;BME280;21556;55.782;37.528;2024-03-25T10:38:00;98737.34;;;12.03;100.00
35435;BME280;21556;55.782;37.528;2024-03-25T10:40:30;98740.19;;;10.91;100.00
35435;BME280;21556;55.782;37.528;2024-03-25T10:43:05;98739.97;;;12.06;100.00
35435;BME280;21556;55.782;37.528;2024-03-25T10:45:35;98739.13;;;11.90;100.00
35435;BME280;21556;55.782;37.528;2024-03-25T10:48:14;98741.84;;;11.64;100.00
35435;BME280;21556;55.782;37.528;2024-03-25T10:50:40;98732.28;;;11.39;100.00
35435;BME280;21556;55.782;37.528;2024-03-25T10:53:08;98732.97;;;12.02;100.00
35435;BME280;21556;55.782;37.528;2024-03-25T10:55:39;98743.63;;;11.53;100.00
35435;BME280;21556;55.782;37.528;2024-03-25T10:58:05;98753.34;;;11.11;100.00
35435;BME280;21556;55.782;37.528;2024-03-25T11:00:32;98750.63;;;11.51;100.00
35435;BME280;21556;55.782;37.528;2024-03-25T11:02:59;98746.28;;;11.28;100.00
35435;BME280;21556;55.782;37.528;2024-03-25T11:05:25;98755.03;;;11.29;100.00
35435;BME280;21556;55.782;37.528;2024-03-25T11:07:51;98759.41;;;10.46;100.00
35435;BME280;21556;55.782;37.528;2024-03-25T11:10:16;98756.78;;;10.59;100.00
35435;BME280;21556;55.782;37.528;2024-03-25T11:12:42;98755.06;;;10.66;100.00
35435;BME280;21556;55.782;37.528;2024-03-25T11:15:08;98755.72;;;10.01;100.00
35435;BME280;21556;55.782;37.528;2024-03-25T11:17:35;98757.56;;;10.23;100.00
35435;BME280;21556;55.782;37.528;2024-03-25T11:20:15;98755.69;;;9.95;100.00
35435;BME280;21556;55.782;37.528;2024-03-25T11:22:52;98756.69;;;10.18;100.00
35435;BME280;21556;55.782;37.528;2024-03-25T11:25:20;98749.81;;;10.63;100.00
35435;BME280;21556;55.782;37.528;2024-03-25T11:27:46;98755.00;;;10.29;100.00
35435;BME280;21556;55.782;37.528;2024-03-25T11:30:12;98755.91;;;10.53;100.00
35435;BME280;21556;55.782;37.528;2024-03-25T11:32:49;98765.53;;;10.54;100.00
35435;BME280;21556;55.782;37.528;2024-03-25T11:35:16;98765.34;;;9.96;100.00
35435;BME280;21556;55.782;37.528;2024-03-25T11:37:42;98769.66;;;9.86;100.00
35435;BME280;21556;55.782;37.528;2024-03-25T11:40:09;98770.50;;;9.77;100.00
35435;BME280;21556;55.782;37.528;2024-03-25T11:42:40;98765.34;;;10.05;100.00
35435;BME280;21556;55.782;37.528;2024-03-25T11:45:16;98770.44;;;9.67;100.00
35435;BME280;21556;55.782;37.528;2024-03-25T11:47:42;98771.38;;;9.79;100.00
35435;BME280;21556;55.782;37.528;2024-03-25T11:50:08;98767.28;;;10.52;100.00
35435;BME280;21556;55.782;37.528;2024-03-25T11:52:34;98769.03;;;10.50;100.00
35435;BME280;21556;55.782;37.528;2024-03-25T11:55:00;98773.34;;;10.29;100.00
35435;BME280;21556;55.782;37.528;2024-03-25T11:57:27;98768.06;;;10.25;100.00
35435;BME280;21556;55.782;37.528;2024-03-25T11:59:53;98774.03;;;9.95;100.00
35435;BME280;21556;55.782;37.528;2024-03-25T12:02:19;98777.69;;;10.27;100.00
35435;BME280;21556;55.782;37.528;2024-03-25T12:04:45;98765.38;;;10.12;100.00
35435;BME280;21556;55.782;37.528;2024-03-25T12:07:11;98780.28;;;10.21;100.00
35435;BME280;21556;55.782;37.528;2024-03-25T12:09:37;98780.94;;;9.73;100.00
35435;BME280;21556;55.782;37.528;2024-03-25T12:12:21;98779.16;;;9.67;100.00
35435;BME280;21556;55.782;37.528;2024-03-25T12:14:48;98777.72;;;10.33;100.00
35435;BME280;21556;55.782;37.528;2024-03-25T12:17:14;98778.34;;;9.83;100.00
35435;BME280;21556;55.782;37.528;2024-03-25T12:19:43;98784.03;;;9.13;100.00
35435;BME280;21556;55.782;37.528;2024-03-25T12:22:10;98780.81;;;9.48;100.00
35435;BME280;21556;55.782;37.528;2024-03-25T12:24:35;98783.50;;;9.65;100.00
35435;BME280;21556;55.782;37.528;2024-03-25T12:27:02;98785.44;;;10.00;100.00
35435;BME280;21556;55.782;37.528;2024-03-25T12:29:28;98793.28;;;10.00;100.00
35435;BME280;21556;55.782;37.528;2024-03-25T12:31:54;98790.63;;;9.89;100.00
35435;BME280;21556;55.782;37.528;2024-03-25T12:34:21;98791.47;;;9.83;100.00
35435;BME280;21556;55.782;37.528;2024-03-25T12:36:50;98786.25;;;9.88;100.00
35435;BME280;21556;55.782;37.528;2024-03-25T12:39:18;98783.63;;;9.80;100.00
35435;BME280;21556;55.782;37.528;2024-03-25T12:41:47;98789.50;;;9.44;100.00
35435;BME280;21556;55.782;37.528;2024-03-25T12:44:13;98798.53;;;10.00;100.00
35435;BME280;21556;55.782;37.528;2024-03-25T12:46:39;98791.38;;;9.63;100.00
35435;BME280;21556;55.782;37.528;2024-03-25T12:49:05;98785.31;;;9.75;100.00
35435;BME280;21556;55.782;37.528;2024-03-25T12:51:32;98786.31;;;10.05;100.00
35435;BME280;21556;55.782;37.528;2024-03-25T12:53:59;98782.84;;;10.07;100.00
35435;BME280;21556;55.782;37.528;2024-03-25T12:56:25;98779.06;;;9.49;100.00
35435;BME280;21556;55.782;37.528;2024-03-25T12:58:50;98792.91;;;9.31;100.00
35435;BME280;21556;55.782;37.528;2024-03-25T13:01:17;98783.56;;;9.74;100.00
35435;BME280;21556;55.782;37.528;2024-03-25T13:03:43;98783.69;;;9.96;100.00
35435;BME280;21556;55.782;37.528;2024-03-25T13:06:09;98781.09;;;10.06;100.00
35435;BME280;21556;55.782;37.528;2024-03-25T13:08:35;98785.38;;;9.89;100.00
35435;BME280;21556;55.782;37.528;2024-03-25T13:11:00;98783.72;;;10.08;100.00
35435;BME280;21556;55.782;37.528;2024-03-25T13:13:26;98782.63;;;9.63;100.00
35435;BME280;21556;55.782;37.528;2024-03-25T13:15:57;98785.38;;;9.91;100.00